sensor_id;sensor_type;location;lat;lon;timestamp;P1;durP1;ratioP1;P2;durP2;ratioP2
3101;SDS011;1561;42.666;23.392;2023-07-30T00:02:15;4.15;;;3.75;;
3101;SDS011;1561;42.666;23.392;2023-07-30T00:04:43;4.00;;;3.58;;
3101;SDS011;1561;42.666;23.392;2023-07-30T00:07:16;4.00;;;3.75;;
3101;SDS011;1561;42.666;23.392;2023-07-30T00:09:45;4.15;;;3.78;;
3101;SDS011;1561;42.666;23.392;2023-07-30T00:12:14;4.05;;;3.67;;
3101;SDS011;1561;42.666;23.392;2023-07-30T00:14:49;4.55;;;4.15;;
3101;SDS011;1561;42.666;23.392;2023-07-30T00:17:18;4.43;;;4.18;;
3101;SDS011;1561;42.666;23.392;2023-07-30T00:19:45;4.57;;;4.15;;
3101;SDS011;1561;42.666;23.392;2023-07-30T00:22:13;4.40;;;4.10;;
3101;SDS011;1561;42.666;23.392;2023-07-30T00:24:43;4.88;;;4.45;;
3101;SDS011;1561;42.666;23.392;2023-07-30T00:27:11;5.22;;;4.72;;
3101;SDS011;1561;42.666;23.392;2023-07-30T00:29:38;4.30;;;4.00;;
3101;SDS011;1561;42.666;23.392;2023-07-30T00:32:08;3.90;;;3.65;;
3101;SDS011;1561;42.666;23.392;2023-07-30T00:34:36;4.15;;;3.85;;
3101;SDS011;1561;42.666;23.392;2023-07-30T00:37:07;4.35;;;4.05;;
3101;SDS011;1561;42.666;23.392;2023-07-30T00:39:34;4.40;;;4.13;;
3101;SDS011;1561;42.666;23.392;2023-07-30T00:42:03;4.28;;;3.97;;
3101;SDS011;1561;42.666;23.392;2023-07-30T00:44:31;4.38;;;3.97;;
3101;SDS011;1561;42.666;23.392;2023-07-30T00:47:00;4.45;;;4.15;;
3101;SDS011;1561;42.666;23.392;2023-07-30T00:49:30;3.88;;;3.58;;
3101;SDS011;1561;42.666;23.392;2023-07-30T00:51:58;4.15;;;3.90;;
3101;SDS011;1561;42.666;23.392;2023-07-30T00:54:27;4.28;;;3.97;;
3101;SDS011;1561;42.666;23.392;2023-07-30T00:56:54;4.60;;;4.20;;
3101;SDS011;1561;42.666;23.392;2023-07-30T00:59:30;4.78;;;4.35;;
3101;SDS011;1561;42.666;23.392;2023-07-30T01:02:00;4.00;;;3.60;;
3101;SDS011;1561;42.666;23.392;2023-07-30T01:04:29;3.78;;;3.47;;
3101;SDS011;1561;42.666;23.392;2023-07-30T01:07:05;4.00;;;3.70;;
3101;SDS011;1561;42.666;23.392;2023-07-30T01:09:42;3.60;;;3.40;;
3101;SDS011;1561;42.666;23.392;2023-07-30T01:12:12;4.15;;;3.85;;
3101;SDS011;1561;42.666;23.392;2023-07-30T01:14:48;4.15;;;3.85;;
3101;SDS011;1561;42.666;23.392;2023-07-30T01:17:17;4.10;;;3.80;;
3101;SDS011;1561;42.666;23.392;2023-07-30T01:19:49;4.03;;;3.72;;
3101;SDS011;1561;42.666;23.392;2023-07-30T01:22:24;3.85;;;3.55;;
3101;SDS011;1561;42.666;23.392;2023-07-30T01:24:51;3.95;;;3.65;;
3101;SDS011;1561;42.666;23.392;2023-07-30T01:27:20;4.53;;;4.22;;
3101;SDS011;1561;42.666;23.392;2023-07-30T01:29:51;3.60;;;3.40;;
3101;SDS011;1561;42.666;23.392;2023-07-30T01:32:25;4.18;;;3.88;;
3101;SDS011;1561;42.666;23.392;2023-07-30T01:34:54;4.13;;;3.83;;
3101;SDS011;1561;42.666;23.392;2023-07-30T01:37:25;4.63;;;4.18;;
3101;SDS011;1561;42.666;23.392;2023-07-30T01:39:54;4.47;;;4.03;;
3101;SDS011;1561;42.666;23.392;2023-07-30T01:42:28;4.07;;;3.78;;
3101;SDS011;1561;42.666;23.392;2023-07-30T01:44:56;6.03;;;3.97;;
3101;SDS011;1561;42.666;23.392;2023-07-30T01:47:25;4.28;;;3.97;;
3101;SDS011;1561;42.666;23.392;2023-07-30T01:49:54;4.38;;;3.97;;
3101;SDS011;1561;42.666;23.392;2023-07-30T01:52:25;4.47;;;4.18;;
3101;SDS011;1561;42.666;23.392;2023-07-30T01:54:55;4.20;;;3.80;;
3101;SDS011;1561;42.666;23.392;2023-07-30T01:57:26;4.28;;;3.97;;
3101;SDS011;1561;42.666;23.392;2023-07-30T01:59:53;3.88;;;3.58;;
3101;SDS011;1561;42.666;23.392;2023-07-30T02:02:22;4.18;;;3.85;;
3101;SDS011;1561;42.666;23.392;2023-07-30T02:04:49;4.55;;;4.15;;
3101;SDS011;1561;42.666;23.392;2023-07-30T02:07:16;4.50;;;4.15;;
3101;SDS011;1561;42.666;23.392;2023-07-30T02:09:44;5.28;;;4.78;;
3101;SDS011;1561;42.666;23.392;2023-07-30T02:12:12;4.85;;;4.40;;
3101;SDS011;1561;42.666;23.392;2023-07-30T02:14:38;5.18;;;4.68;;
3101;SDS011;1561;42.666;23.392;2023-07-30T02:17:09;4.38;;;4.07;;
3101;SDS011;1561;42.666;23.392;2023-07-30T02:19:36;4.72;;;4.25;;
3101;SDS011;1561;42.666;23.392;2023-07-30T02:22:06;4.30;;;4.00;;
3101;SDS011;1561;42.666;23.392;2023-07-30T02:24:35;4.40;;;4.00;;
3101;SDS011;1561;42.666;23.392;2023-07-30T02:27:06;3.78;;;3.47;;
3101;SDS011;1561;42.666;23.392;2023-07-30T02:29:33;4.57;;;4.18;;
3101;SDS011;1561;42.666;23.392;2023-07-30T02:32:06;4.70;;;4.30;;
3101;SDS011;1561;42.666;23.392;2023-07-30T02:34:36;4.63;;;4.32;;
3101;SDS011;1561;42.666;23.392;2023-07-30T02:37:03;4.18;;;3.55;;
3101;SDS011;1561;42.666;23.392;2023-07-30T02:39:31;4.57;;;4.22;;
3101;SDS011;1561;42.666;23.392;2023-07-30T02:41:59;4.40;;;4.10;;
3101;SDS011;1561;42.666;23.392;2023-07-30T02:44:32;4.88;;;4.47;;
3101;SDS011;1561;42.666;23.392;2023-07-30T02:47:01;4.35;;;4.00;;
3101;SDS011;1561;42.666;23.392;2023-07-30T02:49:29;4.10;;;3.80;;
3101;SDS011;1561;42.666;23.392;2023-07-30T02:51:57;4.57;;;4.28;;
3101;SDS011;1561;42.666;23.392;2023-07-30T02:54:27;4.50;;;4.10;;
3101;SDS011;1561;42.666;23.392;2023-07-30T02:56:56;4.85;;;4.40;;
3101;SDS011;1561;42.666;23.392;2023-07-30T02:59:24;4.07;;;3.78;;
3101;SDS011;1561;42.666;23.392;2023-07-30T03:01:53;4.10;;;3.80;;
3101;SDS011;1561;42.666;23.392;2023-07-30T03:04:20;4.25;;;3.80;;
3101;SDS011;1561;42.666;23.392;2023-07-30T03:06:47;4.10;;;3.80;;
3101;SDS011;1561;42.666;23.392;2023-07-30T03:09:15;4.20;;;3.90;;
3101;SDS011;1561;42.666;23.392;2023-07-30T03:11:43;4.45;;;4.05;;
3101;SDS011;1561;42.666;23.392;2023-07-30T03:14:10;4.78;;;4.38;;
3101;SDS011;1561;42.666;23.392;2023-07-30T03:16:45;4.32;;;3.67;;
3101;SDS011;1561;42.666;23.392;2023-07-30T03:19:22;4.72;;;4.30;;
3101;SDS011;1561;42.666;23.392;2023-07-30T03:21:52;4.40;;;4.05;;
3101;SDS011;1561;42.666;23.392;2023-07-30T03:24:20;5.03;;;4.03;;
3101;SDS011;1561;42.666;23.392;2023-07-30T03:26:47;4.15;;;3.85;;
3101;SDS011;1561;42.666;23.392;2023-07-30T03:29:19;4.40;;;4.00;;
3101;SDS011;1561;42.666;23.392;2023-07-30T03:31:47;4.75;;;4.35;;
3101;SDS011;1561;42.666;23.392;2023-07-30T03:34:19;3.95;;;3.65;;
3101;SDS011;1561;42.666;23.392;2023-07-30T03:36:51;4.78;;;4.13;;
3101;SDS011;1561;42.666;23.392;2023-07-30T03:39:25;4.90;;;4.55;;
3101;SDS011;1561;42.666;23.392;2023-07-30T03:41:53;5.05;;;4.35;;
3101;SDS011;1561;42.666;23.392;2023-07-30T03:44:20;4.47;;;4.18;;
3101;SDS011;1561;42.666;23.392;2023-07-30T03:46:48;7.10;;;5.00;;
3101;SDS011;1561;42.666;23.392;2023-07-30T03:49:16;6.40;;;4.70;;
3101;SDS011;1561;42.666;23.392;2023-07-30T03:51:45;4.93;;;4.43;;
3101;SDS011;1561;42.666;23.392;2023-07-30T03:54:14;4.57;;;4.13;;
3101;SDS011;1561;42.666;23.392;2023-07-30T03:56:40;5.63;;;5.22;;
3101;SDS011;1561;42.666;23.392;2023-07-30T03:59:08;5.30;;;4.90;;
3101;SDS011;1561;42.666;23.392;2023-07-30T04:01:37;5.63;;;4.70;;
3101;SDS011;1561;42.666;23.392;2023-07-30T04:04:05;5.03;;;4.50;;
3101;SDS011;1561;42.666;23.392;2023-07-30T04:06:32;5.03;;;4.53;;
3101;SDS011;1561;42.666;23.392;2023-07-30T04:09:01;5.13;;;4.72;;
3101;SDS011;1561;42.666;23.392;2023-07-30T04:11:30;8.68;;;4.85;;
3101;SDS011;1561;42.666;23.392;2023-07-30T04:13:57;5.25;;;4.85;;
3101;SDS011;1561;42.666;23.392;2023-07-30T04:16:24;5.50;;;4.63;;
3101;SDS011;1561;42.666;23.392;2023-07-30T04:18:52;5.93;;;5.38;;
3101;SDS011;1561;42.666;23.392;2023-07-30T04:21:20;5.28;;;4.88;;
3101;SDS011;1561;42.666;23.392;2023-07-30T04:23:48;5.65;;;5.25;;
3101;SDS011;1561;42.666;23.392;2023-07-30T04:26:16;5.03;;;4.63;;
3101;SDS011;1561;42.666;23.392;2023-07-30T04:28:48;13.57;;;6.38;;
3101;SDS011;1561;42.666;23.392;2023-07-30T04:31:18;7.10;;;6.38;;
3101;SDS011;1561;42.666;23.392;2023-07-30T04:33:51;5.85;;;5.35;;
3101;SDS011;1561;42.666;23.392;2023-07-30T04:36:18;6.40;;;5.90;;
3101;SDS011;1561;42.666;23.392;2023-07-30T04:38:47;7.55;;;6.85;;
3101;SDS011;1561;42.666;23.392;2023-07-30T04:41:15;8.70;;;5.97;;
3101;SDS011;1561;42.666;23.392;2023-07-30T04:43:43;5.88;;;5.38;;
3101;SDS011;1561;42.666;23.392;2023-07-30T04:46:12;7.72;;;5.80;;
3101;SDS011;1561;42.666;23.392;2023-07-30T04:48:40;5.80;;;5.40;;
3101;SDS011;1561;42.666;23.392;2023-07-30T04:51:07;5.72;;;5.32;;
3101;SDS011;1561;42.666;23.392;2023-07-30T04:53:36;6.13;;;5.20;;
3101;SDS011;1561;42.666;23.392;2023-07-30T04:56:04;7.60;;;4.97;;
3101;SDS011;1561;42.666;23.392;2023-07-30T04:58:36;5.80;;;5.40;;
3101;SDS011;1561;42.666;23.392;2023-07-30T05:01:03;6.13;;;5.53;;
3101;SDS011;1561;42.666;23.392;2023-07-30T05:03:31;6.88;;;6.07;;
3101;SDS011;1561;42.666;23.392;2023-07-30T05:06:02;7.70;;;7.03;;
3101;SDS011;1561;42.666;23.392;2023-07-30T05:08:30;6.95;;;6.45;;
3101;SDS011;1561;42.666;23.392;2023-07-30T05:10:58;6.35;;;5.75;;
3101;SDS011;1561;42.666;23.392;2023-07-30T05:13:26;6.05;;;5.55;;
3101;SDS011;1561;42.666;23.392;2023-07-30T05:15:56;8.02;;;6.10;;
3101;SDS011;1561;42.666;23.392;2023-07-30T05:18:24;6.53;;;6.03;;
3101;SDS011;1561;42.666;23.392;2023-07-30T05:21:00;8.48;;;6.22;;
3101;SDS011;1561;42.666;23.392;2023-07-30T05:23:27;7.20;;;6.50;;
3101;SDS011;1561;42.666;23.392;2023-07-30T05:25:56;6.05;;;5.55;;
3101;SDS011;1561;42.666;23.392;2023-07-30T05:28:23;6.68;;;6.18;;
3101;SDS011;1561;42.666;23.392;2023-07-30T05:30:50;8.23;;;6.70;;
3101;SDS011;1561;42.666;23.392;2023-07-30T05:33:17;7.30;;;6.70;;
3101;SDS011;1561;42.666;23.392;2023-07-30T05:35:44;6.88;;;6.28;;
3101;SDS011;1561;42.666;23.392;2023-07-30T05:38:15;6.70;;;6.10;;
3101;SDS011;1561;42.666;23.392;2023-07-30T05:40:43;10.65;;;7.47;;
3101;SDS011;1561;42.666;23.392;2023-07-30T05:43:10;8.13;;;7.43;;
3101;SDS011;1561;42.666;23.392;2023-07-30T05:45:37;8.88;;;8.07;;
3101;SDS011;1561;42.666;23.392;2023-07-30T05:48:07;9.82;;;8.20;;
3101;SDS011;1561;42.666;23.392;2023-07-30T05:50:36;7.63;;;6.78;;
3101;SDS011;1561;42.666;23.392;2023-07-30T05:53:03;7.93;;;6.72;;
3101;SDS011;1561;42.666;23.392;2023-07-30T05:55:34;7.13;;;6.47;;
3101;SDS011;1561;42.666;23.392;2023-07-30T05:58:04;7.07;;;6.50;;
3101;SDS011;1561;42.666;23.392;2023-07-30T06:00:31;6.43;;;5.65;;
3101;SDS011;1561;42.666;23.392;2023-07-30T06:02:59;7.97;;;7.22;;
3101;SDS011;1561;42.666;23.392;2023-07-30T06:05:28;7.50;;;5.15;;
3101;SDS011;1561;42.666;23.392;2023-07-30T06:07:56;5.68;;;5.18;;
3101;SDS011;1561;42.666;23.392;2023-07-30T06:10:28;6.15;;;5.75;;
3101;SDS011;1561;42.666;23.392;2023-07-30T06:12:57;7.72;;;6.22;;
3101;SDS011;1561;42.666;23.392;2023-07-30T06:15:26;6.55;;;5.38;;
3101;SDS011;1561;42.666;23.392;2023-07-30T06:17:54;5.68;;;5.18;;
3101;SDS011;1561;42.666;23.392;2023-07-30T06:20:24;6.15;;;5.65;;
3101;SDS011;1561;42.666;23.392;2023-07-30T06:22:51;7.95;;;7.28;;
3101;SDS011;1561;42.666;23.392;2023-07-30T06:25:18;7.53;;;6.93;;
3101;SDS011;1561;42.666;23.392;2023-07-30T06:27:46;8.90;;;8.10;;
3101;SDS011;1561;42.666;23.392;2023-07-30T06:30:16;8.45;;;7.68;;
3101;SDS011;1561;42.666;23.392;2023-07-30T06:32:49;28.63;;;24.63;;
3101;SDS011;1561;42.666;23.392;2023-07-30T06:35:17;7.78;;;7.13;;
3101;SDS011;1561;42.666;23.392;2023-07-30T06:37:43;9.05;;;8.15;;
3101;SDS011;1561;42.666;23.392;2023-07-30T06:40:11;7.28;;;6.68;;
3101;SDS011;1561;42.666;23.392;2023-07-30T06:42:39;7.70;;;7.10;;
3101;SDS011;1561;42.666;23.392;2023-07-30T06:45:07;7.18;;;6.65;;
3101;SDS011;1561;42.666;23.392;2023-07-30T06:47:38;7.95;;;7.22;;
3101;SDS011;1561;42.666;23.392;2023-07-30T06:50:05;8.20;;;7.60;;
3101;SDS011;1561;42.666;23.392;2023-07-30T06:52:36;7.82;;;7.18;;
3101;SDS011;1561;42.666;23.392;2023-07-30T06:55:04;8.35;;;7.60;;
3101;SDS011;1561;42.666;23.392;2023-07-30T06:57:32;8.50;;;7.63;;
3101;SDS011;1561;42.666;23.392;2023-07-30T06:59:59;7.75;;;7.10;;
3101;SDS011;1561;42.666;23.392;2023-07-30T07:02:26;8.93;;;8.13;;
3101;SDS011;1561;42.666;23.392;2023-07-30T07:04:54;8.13;;;7.07;;
3101;SDS011;1561;42.666;23.392;2023-07-30T07:07:22;7.43;;;6.70;;
3101;SDS011;1561;42.666;23.392;2023-07-30T07:09:52;7.18;;;6.68;;
3101;SDS011;1561;42.666;23.392;2023-07-30T07:12:19;14.85;;;13.63;;
3101;SDS011;1561;42.666;23.392;2023-07-30T07:14:49;7.18;;;6.40;;
3101;SDS011;1561;42.666;23.392;2023-07-30T07:17:17;7.25;;;6.75;;
3101;SDS011;1561;42.666;23.392;2023-07-30T07:19:46;10.80;;;9.25;;
3101;SDS011;1561;42.666;23.392;2023-07-30T07:22:17;7.72;;;7.03;;
3101;SDS011;1561;42.666;23.392;2023-07-30T07:24:44;7.18;;;6.50;;
3101;SDS011;1561;42.666;23.392;2023-07-30T07:27:11;6.85;;;6.38;;
3101;SDS011;1561;42.666;23.392;2023-07-30T07:29:40;8.85;;;8.13;;
3101;SDS011;1561;42.666;23.392;2023-07-30T07:32:07;7.88;;;7.18;;
3101;SDS011;1561;42.666;23.392;2023-07-30T07:34:39;6.57;;;6.10;;
3101;SDS011;1561;42.666;23.392;2023-07-30T07:37:07;6.60;;;5.90;;
3101;SDS011;1561;42.666;23.392;2023-07-30T07:39:35;8.25;;;7.60;;
3101;SDS011;1561;42.666;23.392;2023-07-30T07:42:03;6.88;;;6.30;;
3101;SDS011;1561;42.666;23.392;2023-07-30T07:44:30;6.57;;;6.18;;
3101;SDS011;1561;42.666;23.392;2023-07-30T07:46:58;7.35;;;6.80;;
3101;SDS011;1561;42.666;23.392;2023-07-30T07:49:25;6.38;;;5.90;;
3101;SDS011;1561;42.666;23.392;2023-07-30T07:51:51;6.70;;;6.13;;
3101;SDS011;1561;42.666;23.392;2023-07-30T07:54:19;8.00;;;7.32;;
3101;SDS011;1561;42.666;23.392;2023-07-30T07:56:48;6.50;;;6.10;;
3101;SDS011;1561;42.666;23.392;2023-07-30T07:59:20;10.68;;;9.18;;
3101;SDS011;1561;42.666;23.392;2023-07-30T08:01:48;7.60;;;6.97;;
3101;SDS011;1561;42.666;23.392;2023-07-30T08:04:17;7.70;;;7.15;;
3101;SDS011;1561;42.666;23.392;2023-07-30T08:06:46;6.80;;;6.30;;
3101;SDS011;1561;42.666;23.392;2023-07-30T08:09:13;7.53;;;6.80;;
3101;SDS011;1561;42.666;23.392;2023-07-30T08:11:42;7.35;;;6.75;;
3101;SDS011;1561;42.666;23.392;2023-07-30T08:14:13;6.32;;;5.72;;
3101;SDS011;1561;42.666;23.392;2023-07-30T08:16:41;6.90;;;6.35;;
3101;SDS011;1561;42.666;23.392;2023-07-30T08:19:09;6.78;;;6.28;;
3101;SDS011;1561;42.666;23.392;2023-07-30T08:21:37;6.90;;;6.35;;
3101;SDS011;1561;42.666;23.392;2023-07-30T08:24:07;8.10;;;6.00;;
3101;SDS011;1561;42.666;23.392;2023-07-30T08:26:36;6.55;;;5.95;;
3101;SDS011;1561;42.666;23.392;2023-07-30T08:29:05;6.78;;;6.38;;
3101;SDS011;1561;42.666;23.392;2023-07-30T08:31:39;6.65;;;6.13;;
3101;SDS011;1561;42.666;23.392;2023-07-30T08:34:07;5.97;;;5.57;;
3101;SDS011;1561;42.666;23.392;2023-07-30T08:36:34;6.70;;;5.90;;
3101;SDS011;1561;42.666;23.392;2023-07-30T08:39:03;6.68;;;6.00;;
3101;SDS011;1561;42.666;23.392;2023-07-30T08:41:31;7.18;;;5.78;;
3101;SDS011;1561;42.666;23.392;2023-07-30T08:43:59;6.90;;;6.30;;
3101;SDS011;1561;42.666;23.392;2023-07-30T08:46:28;5.95;;;5.53;;
3101;SDS011;1561;42.666;23.392;2023-07-30T08:49:02;6.07;;;5.60;;
3101;SDS011;1561;42.666;23.392;2023-07-30T08:51:29;6.50;;;6.10;;
3101;SDS011;1561;42.666;23.392;2023-07-30T08:54:02;6.03;;;5.43;;
3101;SDS011;1561;42.666;23.392;2023-07-30T08:56:38;6.22;;;5.70;;
3101;SDS011;1561;42.666;23.392;2023-07-30T08:59:07;6.38;;;5.97;;
3101;SDS011;1561;42.666;23.392;2023-07-30T09:01:37;6.32;;;5.82;;
3101;SDS011;1561;42.666;23.392;2023-07-30T09:04:13;6.60;;;6.00;;
3101;SDS011;1561;42.666;23.392;2023-07-30T09:06:44;6.50;;;5.75;;
3101;SDS011;1561;42.666;23.392;2023-07-30T09:09:14;6.47;;;5.97;;
3101;SDS011;1561;42.666;23.392;2023-07-30T09:11:42;5.63;;;5.32;;
3101;SDS011;1561;42.666;23.392;2023-07-30T09:14:10;6.32;;;5.82;;
3101;SDS011;1561;42.666;23.392;2023-07-30T09:16:40;6.35;;;5.85;;
3101;SDS011;1561;42.666;23.392;2023-07-30T09:19:07;6.32;;;5.93;;
3101;SDS011;1561;42.666;23.392;2023-07-30T09:21:35;5.63;;;5.25;;
3101;SDS011;1561;42.666;23.392;2023-07-30T09:24:03;6.10;;;5.60;;
3101;SDS011;1561;42.666;23.392;2023-07-30T09:26:39;6.60;;;6.20;;
3101;SDS011;1561;42.666;23.392;2023-07-30T09:29:22;5.82;;;5.40;;
3101;SDS011;1561;42.666;23.392;2023-07-30T09:31:52;5.57;;;5.18;;
3101;SDS011;1561;42.666;23.392;2023-07-30T09:34:20;5.45;;;4.95;;
3101;SDS011;1561;42.666;23.392;2023-07-30T09:36:51;5.35;;;4.95;;
3101;SDS011;1561;42.666;23.392;2023-07-30T09:39:20;6.20;;;4.40;;
3101;SDS011;1561;42.666;23.392;2023-07-30T09:41:49;5.38;;;5.07;;
3101;SDS011;1561;42.666;23.392;2023-07-30T09:44:19;5.13;;;4.82;;
3101;SDS011;1561;42.666;23.392;2023-07-30T09:46:47;5.80;;;4.82;;
3101;SDS011;1561;42.666;23.392;2023-07-30T09:49:18;5.10;;;4.80;;
3101;SDS011;1561;42.666;23.392;2023-07-30T09:51:45;5.60;;;5.10;;
3101;SDS011;1561;42.666;23.392;2023-07-30T09:54:14;6.28;;;5.57;;
3101;SDS011;1561;42.666;23.392;2023-07-30T09:56:41;6.07;;;5.78;;
3101;SDS011;1561;42.666;23.392;2023-07-30T09:59:09;5.68;;;5.38;;
3101;SDS011;1561;42.666;23.392;2023-07-30T10:01:37;5.30;;;4.90;;
3101;SDS011;1561;42.666;23.392;2023-07-30T10:04:12;5.40;;;5.10;;
3101;SDS011;1561;42.666;23.392;2023-07-30T10:06:41;6.28;;;5.78;;
3101;SDS011;1561;42.666;23.392;2023-07-30T10:09:18;5.88;;;5.50;;
3101;SDS011;1561;42.666;23.392;2023-07-30T10:11:48;6.75;;;6.10;;
3101;SDS011;1561;42.666;23.392;2023-07-30T10:14:20;6.53;;;6.13;;
3101;SDS011;1561;42.666;23.392;2023-07-30T10:17:09;11.48;;;10.32;;
3101;SDS011;1561;42.666;23.392;2023-07-30T10:19:37;10.85;;;9.13;;
3101;SDS011;1561;42.666;23.392;2023-07-30T10:22:19;6.53;;;6.00;;
3101;SDS011;1561;42.666;23.392;2023-07-30T10:24:59;6.05;;;5.65;;
3101;SDS011;1561;42.666;23.392;2023-07-30T10:27:35;6.20;;;5.60;;
3101;SDS011;1561;42.666;23.392;2023-07-30T10:30:09;6.97;;;6.28;;
3101;SDS011;1561;42.666;23.392;2023-07-30T10:32:38;5.80;;;5.40;;
3101;SDS011;1561;42.666;23.392;2023-07-30T10:35:08;6.75;;;6.25;;
3101;SDS011;1561;42.666;23.392;2023-07-30T10:37:59;5.95;;;5.65;;
3101;SDS011;1561;42.666;23.392;2023-07-30T10:40:27;6.40;;;5.90;;
3101;SDS011;1561;42.666;23.392;2023-07-30T10:42:57;6.20;;;5.90;;
3101;SDS011;1561;42.666;23.392;2023-07-30T10:45:26;6.10;;;5.75;;
3101;SDS011;1561;42.666;23.392;2023-07-30T10:48:03;6.45;;;5.85;;
3101;SDS011;1561;42.666;23.392;2023-07-30T10:50:30;6.78;;;6.28;;
3101;SDS011;1561;42.666;23.392;2023-07-30T10:52:58;5.50;;;5.20;;
3101;SDS011;1561;42.666;23.392;2023-07-30T10:55:30;6.30;;;5.80;;
3101;SDS011;1561;42.666;23.392;2023-07-30T10:57:58;6.18;;;5.80;;
3101;SDS011;1561;42.666;23.392;2023-07-30T11:00:26;6.10;;;5.70;;
3101;SDS011;1561;42.666;23.392;2023-07-30T11:02:53;6.63;;;6.13;;
3101;SDS011;1561;42.666;23.392;2023-07-30T11:05:21;5.68;;;5.38;;
3101;SDS011;1561;42.666;23.392;2023-07-30T11:07:50;6.80;;;6.30;;
3101;SDS011;1561;42.666;23.392;2023-07-30T11:10:18;5.70;;;5.40;;
3101;SDS011;1561;42.666;23.392;2023-07-30T11:12:49;5.63;;;5.32;;
3101;SDS011;1561;42.666;23.392;2023-07-30T11:15:16;5.75;;;5.45;;
3101;SDS011;1561;42.666;23.392;2023-07-30T11:17:43;5.70;;;5.40;;
3101;SDS011;1561;42.666;23.392;2023-07-30T11:20:21;6.70;;;6.30;;
3101;SDS011;1561;42.666;23.392;2023-07-30T11:22:49;6.75;;;6.25;;
3101;SDS011;1561;42.666;23.392;2023-07-30T11:25:19;7.47;;;7.07;;
3101;SDS011;1561;42.666;23.392;2023-07-30T11:27:48;6.57;;;6.18;;
3101;SDS011;1561;42.666;23.392;2023-07-30T11:30:16;6.22;;;5.82;;
3101;SDS011;1561;42.666;23.392;2023-07-30T11:32:47;6.20;;;5.72;;
3101;SDS011;1561;42.666;23.392;2023-07-30T11:35:14;6.72;;;6.32;;
3101;SDS011;1561;42.666;23.392;2023-07-30T11:37:46;6.82;;;6.43;;
3101;SDS011;1561;42.666;23.392;2023-07-30T11:40:15;6.93;;;6.53;;
3101;SDS011;1561;42.666;23.392;2023-07-30T11:42:43;6.47;;;6.05;;
3101;SDS011;1561;42.666;23.392;2023-07-30T11:45:18;7.35;;;6.75;;
3101;SDS011;1561;42.666;23.392;2023-07-30T11:47:46;7.03;;;6.53;;
3101;SDS011;1561;42.666;23.392;2023-07-30T11:50:17;7.10;;;6.60;;
3101;SDS011;1561;42.666;23.392;2023-07-30T11:52:54;7.15;;;6.65;;
3101;SDS011;1561;42.666;23.392;2023-07-30T11:55:22;7.10;;;6.70;;
3101;SDS011;1561;42.666;23.392;2023-07-30T11:57:50;6.50;;;6.00;;
3101;SDS011;1561;42.666;23.392;2023-07-30T12:00:21;6.35;;;5.93;;
3101;SDS011;1561;42.666;23.392;2023-07-30T12:02:49;6.45;;;5.95;;
3101;SDS011;1561;42.666;23.392;2023-07-30T12:05:16;6.95;;;6.25;;
3101;SDS011;1561;42.666;23.392;2023-07-30T12:07:46;7.20;;;6.80;;
3101;SDS011;1561;42.666;23.392;2023-07-30T12:10:15;6.63;;;6.22;;
3101;SDS011;1561;42.666;23.392;2023-07-30T12:12:45;7.93;;;7.32;;
3101;SDS011;1561;42.666;23.392;2023-07-30T12:15:17;10.27;;;7.80;;
3101;SDS011;1561;42.666;23.392;2023-07-30T12:17:49;6.70;;;6.20;;
3101;SDS011;1561;42.666;23.392;2023-07-30T12:20:17;7.38;;;6.78;;
3101;SDS011;1561;42.666;23.392;2023-07-30T12:22:44;6.40;;;6.00;;
3101;SDS011;1561;42.666;23.392;2023-07-30T12:25:12;7.50;;;6.82;;
3101;SDS011;1561;42.666;23.392;2023-07-30T12:27:38;7.03;;;6.57;;
3101;SDS011;1561;42.666;23.392;2023-07-30T12:30:06;7.28;;;6.70;;
3101;SDS011;1561;42.666;23.392;2023-07-30T12:32:37;7.07;;;6.68;;
3101;SDS011;1561;42.666;23.392;2023-07-30T12:35:08;7.32;;;6.65;;
3101;SDS011;1561;42.666;23.392;2023-07-30T12:37:35;9.10;;;6.30;;
3101;SDS011;1561;42.666;23.392;2023-07-30T12:40:03;6.68;;;6.18;;
3101;SDS011;1561;42.666;23.392;2023-07-30T12:42:32;7.32;;;6.82;;
3101;SDS011;1561;42.666;23.392;2023-07-30T12:45:02;8.13;;;6.40;;
3101;SDS011;1561;42.666;23.392;2023-07-30T12:47:29;6.70;;;6.30;;
3101;SDS011;1561;42.666;23.392;2023-07-30T12:49:58;7.40;;;7.00;;
3101;SDS011;1561;42.666;23.392;2023-07-30T12:52:27;7.70;;;7.10;;
3101;SDS011;1561;42.666;23.392;2023-07-30T12:54:54;10.02;;;6.60;;
3101;SDS011;1561;42.666;23.392;2023-07-30T12:57:21;7.00;;;6.50;;
3101;SDS011;1561;42.666;23.392;2023-07-30T12:59:48;8.35;;;7.13;;
3101;SDS011;1561;42.666;23.392;2023-07-30T13:02:25;6.95;;;6.45;;
3101;SDS011;1561;42.666;23.392;2023-07-30T13:04:52;7.00;;;6.50;;
3101;SDS011;1561;42.666;23.392;2023-07-30T13:07:21;7.18;;;6.68;;
3101;SDS011;1561;42.666;23.392;2023-07-30T13:09:58;6.90;;;6.38;;
3101;SDS011;1561;42.666;23.392;2023-07-30T13:12:29;8.07;;;6.97;;
3101;SDS011;1561;42.666;23.392;2023-07-30T13:14:58;7.53;;;6.53;;
3101;SDS011;1561;42.666;23.392;2023-07-30T13:17:26;7.35;;;6.85;;
3101;SDS011;1561;42.666;23.392;2023-07-30T13:20:08;6.85;;;6.30;;
3101;SDS011;1561;42.666;23.392;2023-07-30T13:22:35;6.70;;;6.25;;
3101;SDS011;1561;42.666;23.392;2023-07-30T13:25:11;7.50;;;6.15;;
3101;SDS011;1561;42.666;23.392;2023-07-30T13:27:38;7.22;;;6.70;;
3101;SDS011;1561;42.666;23.392;2023-07-30T13:30:07;7.68;;;6.90;;
3101;SDS011;1561;42.666;23.392;2023-07-30T13:32:35;7.28;;;6.75;;
3101;SDS011;1561;42.666;23.392;2023-07-30T13:35:04;7.90;;;7.13;;
3101;SDS011;1561;42.666;23.392;2023-07-30T13:37:31;7.40;;;6.90;;
3101;SDS011;1561;42.666;23.392;2023-07-30T13:39:59;9.85;;;8.95;;
3101;SDS011;1561;42.666;23.392;2023-07-30T13:42:28;9.30;;;8.60;;
3101;SDS011;1561;42.666;23.392;2023-07-30T13:44:59;8.95;;;8.27;;
3101;SDS011;1561;42.666;23.392;2023-07-30T13:47:28;9.77;;;9.02;;
3101;SDS011;1561;42.666;23.392;2023-07-30T13:49:57;8.93;;;8.32;;
3101;SDS011;1561;42.666;23.392;2023-07-30T13:52:26;8.48;;;7.78;;
3101;SDS011;1561;42.666;23.392;2023-07-30T13:54:53;8.48;;;7.85;;
3101;SDS011;1561;42.666;23.392;2023-07-30T13:57:23;7.50;;;6.97;;
3101;SDS011;1561;42.666;23.392;2023-07-30T13:59:56;9.60;;;8.90;;
3101;SDS011;1561;42.666;23.392;2023-07-30T14:02:22;9.73;;;8.82;;
3101;SDS011;1561;42.666;23.392;2023-07-30T14:04:52;7.40;;;6.90;;
3101;SDS011;1561;42.666;23.392;2023-07-30T14:07:23;7.13;;;6.63;;
3101;SDS011;1561;42.666;23.392;2023-07-30T14:09:50;7.32;;;6.82;;
3101;SDS011;1561;42.666;23.392;2023-07-30T14:12:19;8.07;;;7.53;;
3101;SDS011;1561;42.666;23.392;2023-07-30T14:14:47;9.18;;;8.57;;
3101;SDS011;1561;42.666;23.392;2023-07-30T14:17:15;7.65;;;6.95;;
3101;SDS011;1561;42.666;23.392;2023-07-30T14:19:43;7.78;;;7.28;;
3101;SDS011;1561;42.666;23.392;2023-07-30T14:22:11;8.18;;;7.50;;
3101;SDS011;1561;42.666;23.392;2023-07-30T14:24:38;7.93;;;7.43;;
3101;SDS011;1561;42.666;23.392;2023-07-30T14:27:08;7.50;;;7.10;;
3101;SDS011;1561;42.666;23.392;2023-07-30T14:29:35;8.45;;;7.75;;
3101;SDS011;1561;42.666;23.392;2023-07-30T14:32:02;9.23;;;8.52;;
3101;SDS011;1561;42.666;23.392;2023-07-30T14:34:32;8.18;;;7.45;;
3101;SDS011;1561;42.666;23.392;2023-07-30T14:37:07;7.10;;;6.60;;
3101;SDS011;1561;42.666;23.392;2023-07-30T14:39:36;7.97;;;7.43;;
3101;SDS011;1561;42.666;23.392;2023-07-30T14:42:04;8.23;;;7.43;;
3101;SDS011;1561;42.666;23.392;2023-07-30T14:44:32;8.10;;;7.55;;
3101;SDS011;1561;42.666;23.392;2023-07-30T14:46:58;9.48;;;7.75;;
3101;SDS011;1561;42.666;23.392;2023-07-30T14:49:30;7.53;;;6.93;;
3101;SDS011;1561;42.666;23.392;2023-07-30T14:51:58;7.60;;;7.00;;
3101;SDS011;1561;42.666;23.392;2023-07-30T14:54:25;7.20;;;6.60;;
3101;SDS011;1561;42.666;23.392;2023-07-30T14:56:56;7.88;;;7.22;;
3101;SDS011;1561;42.666;23.392;2023-07-30T14:59:24;7.43;;;6.93;;
3101;SDS011;1561;42.666;23.392;2023-07-30T15:01:51;8.20;;;7.60;;
3101;SDS011;1561;42.666;23.392;2023-07-30T15:04:19;8.57;;;7.88;;
3101;SDS011;1561;42.666;23.392;2023-07-30T15:06:47;8.10;;;7.32;;
3101;SDS011;1561;42.666;23.392;2023-07-30T15:09:15;8.20;;;7.60;;
3101;SDS011;1561;42.666;23.392;2023-07-30T15:11:44;8.32;;;7.75;;
3101;SDS011;1561;42.666;23.392;2023-07-30T15:14:12;8.25;;;7.65;;